sensor_id;sensor_type;location;lat;lon;timestamp;temperature;humidity
52435;DHT22;38354;52.892;6.148;2023-08-17T03:02:40;15.50;99.90
52435;DHT22;38354;52.892;6.148;2023-08-17T03:05:05;15.40;99.90
52435;DHT22;38354;52.892;6.148;2023-08-17T03:07:31;15.40;99.90
52435;DHT22;38354;52.892;6.148;2023-08-17T03:09:57;15.40;99.90
52435;DHT22;38354;52.892;6.148;2023-08-17T03:12:22;15.40;99.90
52435;DHT22;38354;52.892;6.148;2023-08-17T03:14:48;15.30;99.90
52435;DHT22;38354;52.892;6.148;2023-08-17T03:17:13;15.30;99.90
52435;DHT22;38354;52.892;6.148;2023-08-17T03:19:39;15.30;99.90
52435;DHT22;38354;52.892;6.148;2023-08-17T03:22:04;15.30;99.90
52435;DHT22;38354;52.892;6.148;2023-08-17T03:24:30;15.30;99.90
52435;DHT22;38354;52.892;6.148;2023-08-17T03:26:55;15.20;99.90
52435;DHT22;38354;52.892;6.148;2023-08-17T03:29:21;15.30;99.90
52435;DHT22;38354;52.892;6.148;2023-08-17T03:31:46;15.20;99.90
52435;DHT22;38354;52.892;6.148;2023-08-17T03:34:12;15.30;99.90
52435;DHT22;38354;52.892;6.148;2023-08-17T03:36:37;15.20;99.90
52435;DHT22;38354;52.892;6.148;2023-08-17T03:39:03;15.20;99.90
52435;DHT22;38354;52.892;6.148;2023-08-17T03:41:28;15.20;99.90
52435;DHT22;38354;52.892;6.148;2023-08-17T03:43:55;15.20;99.90
52435;DHT22;38354;52.892;6.148;2023-08-17T03:46:21;15.20;99.90
52435;DHT22;38354;52.892;6.148;2023-08-17T03:48:46;15.20;99.90
52435;DHT22;38354;52.892;6.148;2023-08-17T03:51:12;15.30;99.90
52435;DHT22;38354;52.892;6.148;2023-08-17T03:53:37;15.30;99.90
52435;DHT22;38354;52.892;6.148;2023-08-17T03:56:03;15.30;99.90
52435;DHT22;38354;52.892;6.148;2023-08-17T03:58:28;15.30;99.90
52435;DHT22;38354;52.892;6.148;2023-08-17T04:00:58;15.30;99.90
52435;DHT22;38354;52.892;6.148;2023-08-17T04:03:24;15.30;99.90
52435;DHT22;38354;52.892;6.148;2023-08-17T04:05:49;15.30;99.90
52435;DHT22;38354;52.892;6.148;2023-08-17T04:08:15;15.30;99.90
52435;DHT22;38354;52.892;6.148;2023-08-17T04:10:40;15.30;99.90
52435;DHT22;38354;52.892;6.148;2023-08-17T04:13:06;15.40;99.90
52435;DHT22;38354;52.892;6.148;2023-08-17T04:15:31;15.40;99.90
52435;DHT22;38354;52.892;6.148;2023-08-17T04:17:57;15.40;99.90
52435;DHT22;38354;52.892;6.148;2023-08-17T04:20:22;15.40;99.90
52435;DHT22;38354;52.892;6.148;2023-08-17T04:22:48;15.30;99.90
52435;DHT22;38354;52.892;6.148;2023-08-17T04:25:13;15.40;99.90
52435;DHT22;38354;52.892;6.148;2023-08-17T04:27:39;15.30;99.90
52435;DHT22;38354;52.892;6.148;2023-08-17T04:30:05;15.30;99.90
52435;DHT22;38354;52.892;6.148;2023-08-17T04:32:31;15.30;99.90
52435;DHT22;38354;52.892;6.148;2023-08-17T04:34:56;15.30;99.90
52435;DHT22;38354;52.892;6.148;2023-08-17T04:37:22;15.30;99.90
52435;DHT22;38354;52.892;6.148;2023-08-17T04:39:47;15.30;99.90
52435;DHT22;38354;52.892;6.148;2023-08-17T04:42:14;15.30;99.90
52435;DHT22;38354;52.892;6.148;2023-08-17T04:44:40;15.30;99.90
52435;DHT22;38354;52.892;6.148;2023-08-17T04:47:05;15.40;99.90
52435;DHT22;38354;52.892;6.148;2023-08-17T04:49:31;15.40;99.90
52435;DHT22;38354;52.892;6.148;2023-08-17T04:51:56;15.40;99.90
52435;DHT22;38354;52.892;6.148;2023-08-17T04:54:22;15.40;99.90
52435;DHT22;38354;52.892;6.148;2023-08-17T04:56:47;15.40;99.90
52435;DHT22;38354;52.892;6.148;2023-08-17T04:59:13;15.50;99.90
52435;DHT22;38354;52.892;6.148;2023-08-17T05:01:38;15.50;99.90
52435;DHT22;38354;52.892;6.148;2023-08-17T05:04:04;15.50;99.90
52435;DHT22;38354;52.892;6.148;2023-08-17T05:06:30;15.60;99.90
52435;DHT22;38354;52.892;6.148;2023-08-17T05:08:56;15.60;99.90
52435;DHT22;38354;52.892;6.148;2023-08-17T05:11:21;15.60;99.90
52435;DHT22;38354;52.892;6.148;2023-08-17T05:13:47;15.60;99.90
52435;DHT22;38354;52.892;6.148;2023-08-17T05:16:12;15.50;99.90
52435;DHT22;38354;52.892;6.148;2023-08-17T05:18:38;15.60;99.90
52435;DHT22;38354;52.892;6.148;2023-08-17T05:21:03;15.60;99.90
52435;DHT22;38354;52.892;6.148;2023-08-17T05:23:29;15.60;99.90
52435;DHT22;38354;52.892;6.148;2023-08-17T05:25:54;15.60;99.90
52435;DHT22;38354;52.892;6.148;2023-08-17T05:28:20;15.60;99.90
52435;DHT22;38354;52.892;6.148;2023-08-17T05:30:46;15.70;99.90
52435;DHT22;38354;52.892;6.148;2023-08-17T05:33:11;15.60;99.90
52435;DHT22;38354;52.892;6.148;2023-08-17T05:35:37;15.60;99.90
52435;DHT22;38354;52.892;6.148;2023-08-17T05:38:03;15.60;99.90
52435;DHT22;38354;52.892;6.148;2023-08-17T05:40:29;15.60;99.90
52435;DHT22;38354;52.892;6.148;2023-08-17T05:42:55;15.60;99.90
52435;DHT22;38354;52.892;6.148;2023-08-17T05:45:21;15.70;99.90
52435;DHT22;38354;52.892;6.148;2023-08-17T05:47:46;15.70;99.90
52435;DHT22;38354;52.892;6.148;2023-08-17T05:50:12;15.70;99.90
52435;DHT22;38354;52.892;6.148;2023-08-17T05:52:38;15.70;99.90
52435;DHT22;38354;52.892;6.148;2023-08-17T05:55:04;15.70;99.90
52435;DHT22;38354;52.892;6.148;2023-08-17T05:57:31;15.70;99.90
52435;DHT22;38354;52.892;6.148;2023-08-17T05:59:56;15.70;99.90
52435;DHT22;38354;52.892;6.148;2023-08-17T06:02:22;15.70;99.90
52435;DHT22;38354;52.892;6.148;2023-08-17T06:04:48;15.70;99.90
52435;DHT22;38354;52.892;6.148;2023-08-17T06:07:13;15.80;99.90
52435;DHT22;38354;52.892;6.148;2023-08-17T06:09:39;15.80;99.90
52435;DHT22;38354;52.892;6.148;2023-08-17T06:12:05;15.90;99.90
52435;DHT22;38354;52.892;6.148;2023-08-17T06:14:31;15.90;99.90
52435;DHT22;38354;52.892;6.148;2023-08-17T06:16:56;15.90;99.90
52435;DHT22;38354;52.892;6.148;2023-08-17T06:19:22;16.00;99.90
52435;DHT22;38354;52.892;6.148;2023-08-17T06:21:47;16.00;99.90
52435;DHT22;38354;52.892;6.148;2023-08-17T06:24:13;16.10;99.90
52435;DHT22;38354;52.892;6.148;2023-08-17T06:26:38;16.10;99.90
52435;DHT22;38354;52.892;6.148;2023-08-17T06:29:04;16.20;99.90
52435;DHT22;38354;52.892;6.148;2023-08-17T06:31:29;16.20;99.90
52435;DHT22;38354;52.892;6.148;2023-08-17T06:33:55;16.30;99.90
52435;DHT22;38354;52.892;6.148;2023-08-17T06:36:21;16.30;99.90
52435;DHT22;38354;52.892;6.148;2023-08-17T06:38:46;16.40;99.90
52435;DHT22;38354;52.892;6.148;2023-08-17T06:41:12;16.40;99.90
52435;DHT22;38354;52.892;6.148;2023-08-17T06:43:38;16.50;99.90
52435;DHT22;38354;52.892;6.148;2023-08-17T06:46:03;16.50;99.90
52435;DHT22;38354;52.892;6.148;2023-08-17T06:48:29;16.60;99.90
52435;DHT22;38354;52.892;6.148;2023-08-17T06:50:56;16.60;99.90
52435;DHT22;38354;52.892;6.148;2023-08-17T06:53:22;16.60;99.90
52435;DHT22;38354;52.892;6.148;2023-08-17T06:55:48;16.70;99.90
52435;DHT22;38354;52.892;6.148;2023-08-17T06:58:13;16.70;99.90
52435;DHT22;38354;52.892;6.148;2023-08-17T07:00:39;16.80;99.90
52435;DHT22;38354;52.892;6.148;2023-08-17T07:03:06;16.90;99.90
52435;DHT22;38354;52.892;6.148;2023-08-17T07:05:32;17.00;99.90
52435;DHT22;38354;52.892;6.148;2023-08-17T07:07:57;17.10;99.90
52435;DHT22;38354;52.892;6.148;2023-08-17T07:10:24;17.10;99.90
52435;DHT22;38354;52.892;6.148;2023-08-17T07:12:50;17.20;99.90
52435;DHT22;38354;52.892;6.148;2023-08-17T07:15:16;17.20;99.90
52435;DHT22;38354;52.892;6.148;2023-08-17T07:17:41;17.20;99.90
52435;DHT22;38354;52.892;6.148;2023-08-17T07:20:07;17.20;99.90
52435;DHT22;38354;52.892;6.148;2023-08-17T07:22:33;17.30;99.90
52435;DHT22;38354;52.892;6.148;2023-08-17T07:24:58;17.20;99.90
52435;DHT22;38354;52.892;6.148;2023-08-17T07:27:24;17.20;99.90
52435;DHT22;38354;52.892;6.148;2023-08-17T07:29:50;17.20;99.90
52435;DHT22;38354;52.892;6.148;2023-08-17T07:32:15;17.20;99.90
52435;DHT22;38354;52.892;6.148;2023-08-17T07:34:41;17.20;99.90
52435;DHT22;38354;52.892;6.148;2023-08-17T07:37:06;17.20;99.90
52435;DHT22;38354;52.892;6.148;2023-08-17T07:39:32;17.30;99.90
52435;DHT22;38354;52.892;6.148;2023-08-17T07:41:58;17.30;99.90
52435;DHT22;38354;52.892;6.148;2023-08-17T07:44:23;17.40;99.90
52435;DHT22;38354;52.892;6.148;2023-08-17T07:46:49;17.40;99.90
52435;DHT22;38354;52.892;6.148;2023-08-17T07:49:14;17.50;99.90
52435;DHT22;38354;52.892;6.148;2023-08-17T07:51:40;17.60;99.90
52435;DHT22;38354;52.892;6.148;2023-08-17T07:54:06;17.60;99.90
52435;DHT22;38354;52.892;6.148;2023-08-17T07:56:31;17.80;99.90
52435;DHT22;38354;52.892;6.148;2023-08-17T07:58:57;17.80;99.90
52435;DHT22;38354;52.892;6.148;2023-08-17T08:01:22;18.00;99.90
52435;DHT22;38354;52.892;6.148;2023-08-17T08:03:48;18.00;99.90
52435;DHT22;38354;52.892;6.148;2023-08-17T08:06:13;18.10;99.90
52435;DHT22;38354;52.892;6.148;2023-08-17T08:08:39;18.20;99.90
52435;DHT22;38354;52.892;6.148;2023-08-17T08:11:05;18.20;99.90
52435;DHT22;38354;52.892;6.148;2023-08-17T08:13:31;18.20;99.90
52435;DHT22;38354;52.892;6.148;2023-08-17T08:15:58;18.30;99.90
52435;DHT22;38354;52.892;6.148;2023-08-17T08:18:23;18.30;99.90
52435;DHT22;38354;52.892;6.148;2023-08-17T08:20:49;18.30;99.90
52435;DHT22;38354;52.892;6.148;2023-08-17T08:23:14;18.30;99.90
52435;DHT22;38354;52.892;6.148;2023-08-17T08:25:40;18.30;99.90
52435;DHT22;38354;52.892;6.148;2023-08-17T08:28:07;18.30;99.90
52435;DHT22;38354;52.892;6.148;2023-08-17T08:30:34;18.30;99.90
52435;DHT22;38354;52.892;6.148;2023-08-17T08:32:59;18.30;99.90
52435;DHT22;38354;52.892;6.148;2023-08-17T08:35:25;18.40;99.90
52435;DHT22;38354;52.892;6.148;2023-08-17T08:37:51;18.40;99.90
52435;DHT22;38354;52.892;6.148;2023-08-17T08:40:17;18.40;99.90
52435;DHT22;38354;52.892;6.148;2023-08-17T08:42:43;18.50;99.90
52435;DHT22;38354;52.892;6.148;2023-08-17T08:45:09;18.50;99.90
52435;DHT22;38354;52.892;6.148;2023-08-17T08:47:38;18.60;99.90
52435;DHT22;38354;52.892;6.148;2023-08-17T08:50:07;18.70;99.90
52435;DHT22;38354;52.892;6.148;2023-08-17T08:52:34;18.80;99.90
52435;DHT22;38354;52.892;6.148;2023-08-17T08:55:05;18.80;99.90
52435;DHT22;38354;52.892;6.148;2023-08-17T08:57:36;19.00;99.90
52435;DHT22;38354;52.892;6.148;2023-08-17T09:00:02;19.10;99.90
52435;DHT22;38354;52.892;6.148;2023-08-17T09:02:29;19.10;99.90
52435;DHT22;38354;52.892;6.148;2023-08-17T09:04:55;19.10;99.90
52435;DHT22;38354;52.892;6.148;2023-08-17T09:07:21;19.00;99.90
52435;DHT22;38354;52.892;6.148;2023-08-17T09:09:47;19.00;99.90
52435;DHT22;38354;52.892;6.148;2023-08-17T09:12:13;18.90;99.90
52435;DHT22;38354;52.892;6.148;2023-08-17T09:14:38;18.90;99.90
52435;DHT22;38354;52.892;6.148;2023-08-17T09:17:06;18.90;99.90
52435;DHT22;38354;52.892;6.148;2023-08-17T09:19:32;18.90;99.90
52435;DHT22;38354;52.892;6.148;2023-08-17T09:21:58;19.00;99.90
52435;DHT22;38354;52.892;6.148;2023-08-17T09:24:24;19.00;99.90
52435;DHT22;38354;52.892;6.148;2023-08-17T09:26:58;19.10;99.90
52435;DHT22;38354;52.892;6.148;2023-08-17T09:29:25;19.20;99.90
52435;DHT22;38354;52.892;6.148;2023-08-17T09:31:51;19.30;99.90
52435;DHT22;38354;52.892;6.148;2023-08-17T09:34:16;19.40;99.90
52435;DHT22;38354;52.892;6.148;2023-08-17T09:36:42;19.40;99.90
52435;DHT22;38354;52.892;6.148;2023-08-17T09:39:10;19.50;99.90
52435;DHT22;38354;52.892;6.148;2023-08-17T09:41:40;19.50;99.90
52435;DHT22;38354;52.892;6.148;2023-08-17T09:44:06;19.50;99.90
52435;DHT22;38354;52.892;6.148;2023-08-17T09:46:31;19.50;99.90
52435;DHT22;38354;52.892;6.148;2023-08-17T09:48:57;19.50;99.90
52435;DHT22;38354;52.892;6.148;2023-08-17T09:51:23;19.60;99.90
52435;DHT22;38354;52.892;6.148;2023-08-17T09:53:52;19.60;99.90
52435;DHT22;38354;52.892;6.148;2023-08-17T09:56:21;19.60;99.90
52435;DHT22;38354;52.892;6.148;2023-08-17T09:58:48;19.70;99.90
52435;DHT22;38354;52.892;6.148;2023-08-17T10:01:14;19.90;99.90
52435;DHT22;38354;52.892;6.148;2023-08-17T10:03:43;20.00;99.90
52435;DHT22;38354;52.892;6.148;2023-08-17T10:06:12;20.10;99.90
52435;DHT22;38354;52.892;6.148;2023-08-17T10:08:42;20.20;99.90
52435;DHT22;38354;52.892;6.148;2023-08-17T10:11:08;20.20;99.90
52435;DHT22;38354;52.892;6.148;2023-08-17T10:13:35;20.30;99.90
52435;DHT22;38354;52.892;6.148;2023-08-17T10:18:54;20.40;99.90
52435;DHT22;38354;52.892;6.148;2023-08-17T10:22:08;20.40;99.90
52435;DHT22;38354;52.892;6.148;2023-08-17T10:24:07;20.40;99.90
52435;DHT22;38354;52.892;6.148;2023-08-17T10:26:32;20.40;99.90
52435;DHT22;38354;52.892;6.148;2023-08-17T10:28:58;20.40;99.90
52435;DHT22;38354;52.892;6.148;2023-08-17T10:31:27;20.50;99.90
52435;DHT22;38354;52.892;6.148;2023-08-17T10:33:53;20.50;99.90
52435;DHT22;38354;52.892;6.148;2023-08-17T10:36:18;20.50;99.90
52435;DHT22;38354;52.892;6.148;2023-08-17T10:38:44;20.50;99.90
52435;DHT22;38354;52.892;6.148;2023-08-17T10:41:11;20.50;99.90
52435;DHT22;38354;52.892;6.148;2023-08-17T10:46:21;20.50;99.90
52435;DHT22;38354;52.892;6.148;2023-08-17T10:48:46;20.40;99.90
52435;DHT22;38354;52.892;6.148;2023-08-17T10:51:12;20.50;99.90
52435;DHT22;38354;52.892;6.148;2023-08-17T10:53:39;20.50;99.90
52435;DHT22;38354;52.892;6.148;2023-08-17T10:56:09;20.60;99.90
52435;DHT22;38354;52.892;6.148;2023-08-17T10:58:35;20.70;99.90
52435;DHT22;38354;52.892;6.148;2023-08-17T11:01:01;20.80;99.90
52435;DHT22;38354;52.892;6.148;2023-08-17T11:03:26;20.80;99.90
52435;DHT22;38354;52.892;6.148;2023-08-17T11:05:54;20.80;99.90
52435;DHT22;38354;52.892;6.148;2023-08-17T11:08:34;20.70;99.90
52435;DHT22;38354;52.892;6.148;2023-08-17T11:11:04;20.70;99.90
52435;DHT22;38354;52.892;6.148;2023-08-17T11:13:30;20.60;99.90
52435;DHT22;38354;52.892;6.148;2023-08-17T11:15:57;20.60;99.90
52435;DHT22;38354;52.892;6.148;2023-08-17T11:18:23;20.60;99.90
52435;DHT22;38354;52.892;6.148;2023-08-17T11:20:48;20.50;99.90
52435;DHT22;38354;52.892;6.148;2023-08-17T11:23:15;20.60;99.90
52435;DHT22;38354;52.892;6.148;2023-08-17T11:25:41;20.50;99.90
52435;DHT22;38354;52.892;6.148;2023-08-17T11:28:07;20.60;99.90
52435;DHT22;38354;52.892;6.148;2023-08-17T11:30:33;20.60;99.90
52435;DHT22;38354;52.892;6.148;2023-08-17T11:33:04;20.60;99.90
52435;DHT22;38354;52.892;6.148;2023-08-17T11:35:31;20.70;99.90
52435;DHT22;38354;52.892;6.148;2023-08-17T11:37:56;20.70;99.90
52435;DHT22;38354;52.892;6.148;2023-08-17T11:40:22;20.70;99.90
52435;DHT22;38354;52.892;6.148;2023-08-17T11:42:48;20.80;99.90
52435;DHT22;38354;52.892;6.148;2023-08-17T11:45:13;20.90;99.90
52435;DHT22;38354;52.892;6.148;2023-08-17T11:47:39;20.90;99.90
52435;DHT22;38354;52.892;6.148;2023-08-17T11:50:05;21.00;99.90
52435;DHT22;38354;52.892;6.148;2023-08-17T11:52:31;21.00;99.90
52435;DHT22;38354;52.892;6.148;2023-08-17T11:54:58;20.90;99.90
52435;DHT22;38354;52.892;6.148;2023-08-17T11:57:24;20.90;99.90
52435;DHT22;38354;52.892;6.148;2023-08-17T11:59:53;20.90;99.90
52435;DHT22;38354;52.892;6.148;2023-08-17T12:02:20;20.90;99.90
52435;DHT22;38354;52.892;6.148;2023-08-17T12:04:46;20.90;99.90
52435;DHT22;38354;52.892;6.148;2023-08-17T12:07:11;20.90;99.90
52435;DHT22;38354;52.892;6.148;2023-08-17T12:09:37;20.90;99.90
52435;DHT22;38354;52.892;6.148;2023-08-17T12:12:03;20.90;99.90
52435;DHT22;38354;52.892;6.148;2023-08-17T12:14:29;20.90;99.90
52435;DHT22;38354;52.892;6.148;2023-08-17T12:16:55;20.90;99.90
52435;DHT22;38354;52.892;6.148;2023-08-17T12:19:21;20.90;99.90
52435;DHT22;38354;52.892;6.148;2023-08-17T12:21:50;20.80;99.90
52435;DHT22;38354;52.892;6.148;2023-08-17T12:24:15;20.80;99.90
52435;DHT22;38354;52.892;6.148;2023-08-17T12:26:42;20.80;99.90
52435;DHT22;38354;52.892;6.148;2023-08-17T12:29:08;20.80;99.90
52435;DHT22;38354;52.892;6.148;2023-08-17T12:31:34;20.70;99.90
52435;DHT22;38354;52.892;6.148;2023-08-17T12:33:59;20.80;99.90
52435;DHT22;38354;52.892;6.148;2023-08-17T12:36:25;20.70;99.90
52435;DHT22;38354;52.892;6.148;2023-08-17T12:38:50;20.80;99.90
52435;DHT22;38354;52.892;6.148;2023-08-17T12:41:16;20.70;99.90
52435;DHT22;38354;52.892;6.148;2023-08-17T12:43:43;20.70;99.90
52435;DHT22;38354;52.892;6.148;2023-08-17T12:46:08;20.60;99.90
52435;DHT22;38354;52.892;6.148;2023-08-17T12:48:34;20.60;99.90
52435;DHT22;38354;52.892;6.148;2023-08-17T12:50:59;20.70;99.90
52435;DHT22;38354;52.892;6.148;2023-08-17T12:53:25;20.60;99.90
52435;DHT22;38354;52.892;6.148;2023-08-17T12:55:50;20.60;99.90
52435;DHT22;38354;52.892;6.148;2023-08-17T12:58:16;20.70;99.90
52435;DHT22;38354;52.892;6.148;2023-08-17T13:00:42;20.70;99.90
52435;DHT22;38354;52.892;6.148;2023-08-17T13:03:07;20.80;99.90
52435;DHT22;38354;52.892;6.148;2023-08-17T13:05:33;20.70;99.90
52435;DHT22;38354;52.892;6.148;2023-08-17T13:07:58;20.70;99.90
52435;DHT22;38354;52.892;6.148;2023-08-17T13:10:24;20.70;99.90
52435;DHT22;38354;52.892;6.148;2023-08-17T13:12:49;20.70;99.90
52435;DHT22;38354;52.892;6.148;2023-08-17T13:15:20;20.80;99.90
52435;DHT22;38354;52.892;6.148;2023-08-17T13:17:46;20.80;99.90
52435;DHT22;38354;52.892;6.148;2023-08-17T13:20:12;20.90;99.90
52435;DHT22;38354;52.892;6.148;2023-08-17T13:22:37;20.90;99.90
52435;DHT22;38354;52.892;6.148;2023-08-17T13:25:03;21.00;99.90
52435;DHT22;38354;52.892;6.148;2023-08-17T13:27:29;21.00;99.90
52435;DHT22;38354;52.892;6.148;2023-08-17T13:29:54;21.00;99.90
52435;DHT22;38354;52.892;6.148;2023-08-17T13:32:20;21.00;99.90
52435;DHT22;38354;52.892;6.148;2023-08-17T13:34:45;21.00;99.90
52435;DHT22;38354;52.892;6.148;2023-08-17T13:37:11;21.10;99.90
52435;DHT22;38354;52.892;6.148;2023-08-17T13:39:36;21.10;99.90
52435;DHT22;38354;52.892;6.148;2023-08-17T13:42:02;21.10;99.90
52435;DHT22;38354;52.892;6.148;2023-08-17T13:44:27;21.10;99.90
52435;DHT22;38354;52.892;6.148;2023-08-17T13:46:53;21.10;99.90
52435;DHT22;38354;52.892;6.148;2023-08-17T13:49:19;21.10;99.90
52435;DHT22;38354;52.892;6.148;2023-08-17T13:51:44;21.10;99.90
52435;DHT22;38354;52.892;6.148;2023-08-17T13:54:10;21.00;99.90
52435;DHT22;38354;52.892;6.148;2023-08-17T13:56:35;21.00;99.90
52435;DHT22;38354;52.892;6.148;2023-08-17T13:59:01;21.00;99.90
52435;DHT22;38354;52.892;6.148;2023-08-17T14:01:27;21.00;99.90
52435;DHT22;38354;52.892;6.148;2023-08-17T14:03:53;21.00;99.90
52435;DHT22;38354;52.892;6.148;2023-08-17T14:06:18;20.90;99.90
52435;DHT22;38354;52.892;6.148;2023-08-17T14:08:44;20.90;99.90
52435;DHT22;38354;52.892;6.148;2023-08-17T14:11:09;20.80;99.90
52435;DHT22;38354;52.892;6.148;2023-08-17T14:13:35;20.80;99.90
52435;DHT22;38354;52.892;6.148;2023-08-17T14:16:02;20.80;99.90
52435;DHT22;38354;52.892;6.148;2023-08-17T14:18:27;20.70;99.90
52435;DHT22;38354;52.892;6.148;2023-08-17T14:20:53;20.70;99.90
52435;DHT22;38354;52.892;6.148;2023-08-17T14:23:19;20.70;99.90
52435;DHT22;38354;52.892;6.148;2023-08-17T14:25:44;20.60;99.90
52435;DHT22;38354;52.892;6.148;2023-08-17T14:28:10;20.60;99.90
52435;DHT22;38354;52.892;6.148;2023-08-17T14:30:35;20.60;99.90
52435;DHT22;38354;52.892;6.148;2023-08-17T14:33:01;20.60;99.90
52435;DHT22;38354;52.892;6.148;2023-08-17T14:35:27;20.50;99.90
52435;DHT22;38354;52.892;6.148;2023-08-17T14:37:52;20.60;99.90
52435;DHT22;38354;52.892;6.148;2023-08-17T14:40:18;20.50;99.90
52435;DHT22;38354;52.892;6.148;2023-08-17T14:42:44;20.50;99.90
52435;DHT22;38354;52.892;6.148;2023-08-17T14:45:10;20.60;99.90
52435;DHT22;38354;52.892;6.148;2023-08-17T14:47:36;20.60;99.90
52435;DHT22;38354;52.892;6.148;2023-08-17T14:50:01;20.60;99.90
52435;DHT22;38354;52.892;6.148;2023-08-17T14:52:27;20.60;99.90
52435;DHT22;38354;52.892;6.148;2023-08-17T14:54:53;20.70;99.90
52435;DHT22;38354;52.892;6.148;2023-08-17T14:57:18;20.70;99.90
52435;DHT22;38354;52.892;6.148;2023-08-17T14:59:44;20.70;99.90
52435;DHT22;38354;52.892;6.148;2023-08-17T15:02:09;20.60;99.90
52435;DHT22;38354;52.892;6.148;2023-08-17T15:04:36;20.60;99.90
52435;DHT22;38354;52.892;6.148;2023-08-17T15:07:04;20.60;99.90
52435;DHT22;38354;52.892;6.148;2023-08-17T15:09:35;20.60;99.90
52435;DHT22;38354;52.892;6.148;2023-08-17T15:12:00;20.60;99.90
52435;DHT22;38354;52.892;6.148;2023-08-17T15:14:26;20.60;99.90
52435;DHT22;38354;52.892;6.148;2023-08-17T15:16:51;20.50;99.90
52435;DHT22;38354;52.892;6.148;2023-08-17T15:19:17;20.50;99.90
52435;DHT22;38354;52.892;6.148;2023-08-17T15:21:42;20.50;99.90
52435;DHT22;38354;52.892;6.148;2023-08-17T15:24:08;20.50;99.90
52435;DHT22;38354;52.892;6.148;2023-08-17T15:26:33;20.50;99.90
52435;DHT22;38354;52.892;6.148;2023-08-17T15:29:02;20.40;99.90
52435;DHT22;38354;52.892;6.148;2023-08-17T15:31:27;20.40;99.90
52435;DHT22;38354;52.892;6.148;2023-08-17T15:33:53;20.40;99.90
52435;DHT22;38354;52.892;6.148;2023-08-17T15:36:18;20.30;99.90
52435;DHT22;38354;52.892;6.148;2023-08-17T15:38:47;20.40;99.90
52435;DHT22;38354;52.892;6.148;2023-08-17T15:41:13;20.30;99.90
52435;DHT22;38354;52.892;6.148;2023-08-17T15:43:38;20.30;99.90
52435;DHT22;38354;52.892;6.148;2023-08-17T15:46:04;20.30;99.90
52435;DHT22;38354;52.892;6.148;2023-08-17T15:48:30;20.20;99.90
52435;DHT22;38354;52.892;6.148;2023-08-17T15:50:56;20.20;99.90
52435;DHT22;38354;52.892;6.148;2023-08-17T15:53:22;20.20;99.90
52435;DHT22;38354;52.892;6.148;2023-08-17T15:55:47;20.20;99.90
52435;DHT22;38354;52.892;6.148;2023-08-17T15:58:13;20.20;99.90
52435;DHT22;38354;52.892;6.148;2023-08-17T16:00:39;20.10;99.90
52435;DHT22;38354;52.892;6.148;2023-08-17T16:03:04;20.10;99.90
52435;DHT22;38354;52.892;6.148;2023-08-17T16:05:30;20.10;99.90
52435;DHT22;38354;52.892;6.148;2023-08-17T16:07:56;20.10;99.90
52435;DHT22;38354;52.892;6.148;2023-08-17T16:10:21;20.10;99.90
52435;DHT22;38354;52.892;6.148;2023-08-17T16:12:47;20.10;99.90
52435;DHT22;38354;52.892;6.148;2023-08-17T16:15:12;20.10;99.90
52435;DHT22;38354;52.892;6.148;2023-08-17T16:17:38;20.00;99.90
52435;DHT22;38354;52.892;6.148;2023-08-17T16:20:04;20.10;99.90
52435;DHT22;38354;52.892;6.148;2023-08-17T16:22:29;20.10;99.90
52435;DHT22;38354;52.892;6.148;2023-08-17T16:24:55;20.00;99.90
52435;DHT22;38354;52.892;6.148;2023-08-17T16:27:21;20.10;99.90
52435;DHT22;38354;52.892;6.148;2023-08-17T16:29:46;20.10;99.90
52435;DHT22;38354;52.892;6.148;2023-08-17T16:32:12;20.00;99.90
52435;DHT22;38354;52.892;6.148;2023-08-17T16:34:37;20.00;99.90
52435;DHT22;38354;52.892;6.148;2023-08-17T16:37:04;20.00;99.90
52435;DHT22;38354;52.892;6.148;2023-08-17T16:39:29;20.00;99.90
52435;DHT22;38354;52.892;6.148;2023-08-17T16:41:56;20.00;99.90
52435;DHT22;38354;52.892;6.148;2023-08-17T16:44:21;20.00;99.90
52435;DHT22;38354;52.892;6.148;2023-08-17T16:46:47;20.00;99.90
52435;DHT22;38354;52.892;6.148;2023-08-17T16:49:13;20.00;99.90
52435;DHT22;38354;52.892;6.148;2023-08-17T16:51:39;20.00;99.90
52435;DHT22;38354;52.892;6.148;2023-08-17T16:54:05;20.00;99.90
52435;DHT22;38354;52.892;6.148;2023-08-17T16:56:30;20.00;99.90
52435;DHT22;38354;52.892;6.148;2023-08-17T16:58:56;19.90;99.90
52435;DHT22;38354;52.892;6.148;2023-08-17T17:01:21;19.90;99.90
52435;DHT22;38354;52.892;6.148;2023-08-17T17:03:47;19.90;99.90
52435;DHT22;38354;52.892;6.148;2023-08-17T17:06:12;19.90;99.90
52435;DHT22;38354;52.892;6.148;2023-08-17T17:08:38;19.90;99.90
52435;DHT22;38354;52.892;6.148;2023-08-17T17:11:04;19.90;99.90
52435;DHT22;38354;52.892;6.148;2023-08-17T17:13:29;19.90;99.90
52435;DHT22;38354;52.892;6.148;2023-08-17T17:15:55;19.90;99.90
52435;DHT22;38354;52.892;6.148;2023-08-17T17:18:20;19.80;99.90
52435;DHT22;38354;52.892;6.148;2023-08-17T17:20:46;19.80;99.90
52435;DHT22;38354;52.892;6.148;2023-08-17T17:23:11;19.80;99.90
52435;DHT22;38354;52.892;6.148;2023-08-17T17:25:37;19.80;99.90
52435;DHT22;38354;52.892;6.148;2023-08-17T17:28:02;19.80;99.90
52435;DHT22;38354;52.892;6.148;2023-08-17T17:30:28;19.80;99.90
52435;DHT22;38354;52.892;6.148;2023-08-17T17:32:54;19.70;99.90
52435;DHT22;38354;52.892;6.148;2023-08-17T17:35:19;19.80;99.90
52435;DHT22;38354;52.892;6.148;2023-08-17T17:37:45;19.70;99.90
52435;DHT22;38354;52.892;6.148;2023-08-17T17:40:10;19.70;99.90
52435;DHT22;38354;52.892;6.148;2023-08-17T17:42:36;19.70;99.90
52435;DHT22;38354;52.892;6.148;2023-08-17T17:45:02;19.70;99.90
52435;DHT22;38354;52.892;6.148;2023-08-17T17:47:27;19.80;99.90
52435;DHT22;38354;52.892;6.148;2023-08-17T17:49:53;19.70;99.90
52435;DHT22;38354;52.892;6.148;2023-08-17T17:52:18;19.70;99.90
52435;DHT22;38354;52.892;6.148;2023-08-17T17:54:44;19.70;99.90
52435;DHT22;38354;52.892;6.148;2023-08-17T17:57:09;19.70;99.90
52435;DHT22;38354;52.892;6.148;2023-08-17T17:59:35;19.60;99.90
52435;DHT22;38354;52.892;6.148;2023-08-17T18:02:00;19.70;99.90
52435;DHT22;38354;52.892;6.148;2023-08-17T18:04:26;19.70;99.90
52435;DHT22;38354;52.892;6.148;2023-08-17T18:06:52;19.60;99.90
52435;DHT22;38354;52.892;6.148;2023-08-17T18:09:19;19.60;99.90
52435;DHT22;38354;52.892;6.148;2023-08-17T18:11:44;19.60;99.90
52435;DHT22;38354;52.892;6.148;2023-08-17T18:14:10;19.50;99.90
52435;DHT22;38354;52.892;6.148;2023-08-17T18:16:36;19.50;99.90
52435;DHT22;38354;52.892;6.148;2023-08-17T18:19:01;19.50;99.90
52435;DHT22;38354;52.892;6.148;2023-08-17T18:21:27;19.50;99.90
52435;DHT22;38354;52.892;6.148;2023-08-17T18:23:56;19.40;99.90
52435;DHT22;38354;52.892;6.148;2023-08-17T18:26:22;19.40;99.90
52435;DHT22;38354;52.892;6.148;2023-08-17T18:28:47;19.40;99.90